Time;durP1;ratioP1;P1;durP2;ratioP2;P2;SDS_P1;SDS_P2;PMS_P1;PMS_P2;Temp;Humidity;BMP_temperature;BMP_pressure;BME280_temperature;BME280_humidity;BME280_pressure;Samples;Min_cycle;Max_cycle;Signal;HPM_P1;HPM_P2
2021/06/10 00:00:39;;;;;;;12.43;6.05;;;564.00;1587.20;;;;;;5063629;28;20049;-78
2021/06/10 00:03:05;;;;;;;7.70;5.95;;;564.00;1561.60;;;;;;5083924;28;20028;-90
2021/06/10 00:05:32;;;;;;;10.60;6.10;;;563.90;1587.20;;;;;;5075894;28;20065;-80
2021/06/10 00:07:57;;;;;;;11.52;5.47;;;564.00;1561.60;;;;;;5093930;28;20035;-78
2021/06/10 00:10:25;;;;;;;8.50;6.03;;;563.90;1587.20;;;;;;5076321;28;20016;-83
2021/06/10 00:12:52;;;;;;;13.43;6.13;;;563.80;1587.20;;;;;;5093336;28;20059;-79
2021/06/10 00:15:21;;;;;;;12.43;5.93;;;563.80;1587.20;;;;;;5093863;28;20016;-78
2021/06/10 00:17:47;;;;;;;8.60;5.97;;;563.70;1612.80;;;;;;5076044;28;20028;-79
2021/06/10 00:20:16;;;;;;;7.00;5.05;;;563.60;1612.80;;;;;;5093751;28;20024;-79
2021/06/10 00:22:42;;;;;;;7.72;5.65;;;563.50;1612.80;;;;;;5094097;28;20099;-79
2021/06/10 00:25:09;;;;;;;8.50;5.85;;;563.50;1612.80;;;;;;5075518;28;20039;-91
2021/06/10 00:27:37;;;;;;;11.60;5.78;;;563.50;1612.80;;;;;;5094073;28;20031;-79
2021/06/10 00:30:08;;;;;;;7.75;5.57;;;563.50;1612.80;;;;;;5075293;28;20481;-79
2021/06/10 00:32:34;;;;;;;8.65;5.75;;;563.50;1612.80;;;;;;5093136;28;20051;-79
2021/06/10 00:34:59;;;;;;;9.00;6.05;;;563.50;1612.80;;;;;;5093449;28;20039;-78
2021/06/10 00:37:25;;;;;;;13.45;5.82;;;563.40;1612.80;;;;;;5081448;28;20103;-79
2021/06/10 00:39:51;;;;;;;10.52;6.70;;;563.40;1612.80;;;;;;5075403;28;20031;-82
2021/06/10 00:42:17;;;;;;;11.98;6.95;;;563.20;1638.40;;;;;;5075339;28;20381;-91
2021/06/10 00:44:43;;;;;;;12.80;6.97;;;563.30;1638.40;;;;;;5093730;28;20024;-78
2021/06/10 00:47:08;;;;;;;8.57;6.45;;;563.20;1638.40;;;;;;5074902;28;20385;-78
2021/06/10 00:49:34;;;;;;;17.50;6.75;;;563.20;1638.40;;;;;;5093602;28;20024;-91
2021/06/10 00:52:00;;;;;;;11.77;7.32;;;538.50;1612.80;;;;;;5093249;28;20099;-91
2021/06/10 00:54:26;;;;;;;10.75;6.25;;;538.50;1638.40;;;;;;5093578;28;20016;-78
2021/06/10 00:56:52;;;;;;;10.63;6.55;;;538.50;1638.40;;;;;;5075260;28;20032;-78
2021/06/10 00:59:18;;;;;;;13.02;6.70;;;538.50;1638.40;;;;;;5074970;28;20027;-77
2021/06/10 01:01:44;;;;;;;10.63;6.75;;;538.50;1638.40;;;;;;5075013;28;20039;-78
2021/06/10 01:04:10;;;;;;;11.00;6.80;;;538.40;1638.40;;;;;;5074003;28;20039;-78
2021/06/10 01:06:54;;;;;;;11.05;6.47;;;538.30;1664.00;;;;;;5093057;28;20024;-78
2021/06/10 01:09:34;;;;;;;9.20;7.30;;;538.40;1664.00;;;;;;5092647;28;20036;-79
2021/06/10 01:12:23;;;;;;;13.68;6.85;;;538.30;1664.00;;;;;;5074784;28;20016;-88
2021/06/10 01:15:14;;;;;;;8.32;6.40;;;538.20;1664.00;;;;;;5074578;28;20027;-78
2021/06/10 01:17:44;;;;;;;8.68;5.95;;;538.20;1664.00;;;;;;5074945;28;20107;-90
2021/06/10 01:20:17;;;;;;;11.30;7.13;;;538.20;1664.00;;;;;;5061358;28;20416;-84
2021/06/10 01:22:49;;;;;;;11.48;7.00;;;538.20;1689.60;;;;;;5074674;28;20028;-79
2021/06/10 01:25:51;;;;;;;8.50;6.43;;;538.20;1664.00;;;;;;5056539;28;20021;-78
2021/06/10 01:28:28;;;;;;;9.32;6.20;;;538.30;1664.00;;;;;;5071826;28;20024;-78
2021/06/10 01:31:00;;;;;;;11.35;6.10;;;538.20;1689.60;;;;;;5087431;28;20040;-78
2021/06/10 01:33:31;;;;;;;8.90;6.47;;;538.10;1689.60;;;;;;5074291;28;20028;-78
2021/06/10 01:36:13;;;;;;;10.90;6.32;;;538.20;1689.60;;;;;;5092184;28;20032;-78
2021/06/10 01:38:41;;;;;;;12.27;6.53;;;538.20;1689.60;;;;;;5092780;28;20012;-79
2021/06/10 01:41:09;;;;;;;10.55;6.65;;;538.10;1689.60;;;;;;5074763;28;20162;-85
2021/06/10 01:43:38;;;;;;;12.93;6.38;;;538.00;1689.60;;;;;;5060799;28;20020;-77
2021/06/10 01:46:05;;;;;;;18.98;6.35;;;538.00;1715.20;;;;;;5073790;28;20024;-79
2021/06/10 01:48:32;;;;;;;9.80;6.97;;;538.00;1689.60;;;;;;5074127;28;20036;-78
2021/06/10 01:51:00;;;;;;;10.90;6.07;;;537.90;1715.20;;;;;;5074024;28;20020;-79
2021/06/10 01:53:27;;;;;;;9.07;6.68;;;537.90;1715.20;;;;;;5074076;28;20551;-78
2021/06/10 01:55:56;;;;;;;8.80;6.60;;;537.90;1715.20;;;;;;5092216;28;20028;-77
2021/06/10 01:58:23;;;;;;;11.75;6.45;;;537.80;1715.20;;;;;;5065140;28;20068;-78
2021/06/10 02:00:51;;;;;;;10.27;6.65;;;537.80;1715.20;;;;;;5067842;28;20118;-88
2021/06/10 02:03:21;;;;;;;10.75;7.13;;;537.80;1715.20;;;;;;5061909;28;20024;-79
2021/06/10 02:05:48;;;;;;;12.98;6.50;;;537.70;1740.80;;;;;;5060210;28;20504;-78
2021/06/10 02:08:15;;;;;;;10.75;6.85;;;537.70;1740.80;;;;;;5078248;28;20086;-87
2021/06/10 02:10:44;;;;;;;10.93;7.68;;;537.80;1740.80;;;;;;5092382;28;20020;-89
2021/06/10 02:13:10;;;;;;;12.68;7.07;;;537.80;1740.80;;;;;;5074119;28;20115;-90
2021/06/10 02:15:36;;;;;;;9.70;7.80;;;538.00;1740.80;;;;;;5073830;28;20054;-80
2021/06/10 02:18:03;;;;;;;10.15;7.32;;;512.90;1715.20;;;;;;5091974;28;20034;-79
2021/06/10 02:20:29;;;;;;;9.13;6.72;;;537.60;1740.80;;;;;;5074154;28;20051;-90
2021/06/10 02:22:55;;;;;;;11.95;6.75;;;512.90;1715.20;;;;;;5073754;28;20468;-90
2021/06/10 02:25:21;;;;;;;8.20;6.93;;;512.90;1740.80;;;;;;5092057;28;20501;-78
2021/06/10 02:27:46;;;;;;;10.73;6.88;;;512.80;1740.80;;;;;;5073976;28;20032;-78
2021/06/10 02:30:15;;;;;;;10.98;7.45;;;512.80;1740.80;;;;;;5073602;28;20036;-78
2021/06/10 02:32:40;;;;;;;13.75;6.78;;;512.80;1740.80;;;;;;5073598;28;20502;-90
2021/06/10 02:35:09;;;;;;;11.98;7.53;;;512.90;1715.20;;;;;;5091911;28;20027;-78
2021/06/10 02:37:40;;;;;;;13.52;6.95;;;512.80;1740.80;;;;;;5084609;28;20024;-90
2021/06/10 02:40:12;;;;;;;14.85;7.65;;;512.50;1766.40;;;;;;5092299;28;20076;-87
2021/06/10 02:42:39;;;;;;;11.02;7.97;;;512.40;1766.40;;;;;;5077794;28;20486;-78
2021/06/10 02:45:08;;;;;;;10.35;7.75;;;512.30;1766.40;;;;;;5077355;28;20024;-77
2021/06/10 02:47:37;;;;;;;18.50;9.00;;;512.40;1792.00;;;;;;5091271;28;20029;-77
2021/06/10 02:50:06;;;;;;;11.43;7.65;;;512.40;1766.40;;;;;;5067641;28;20028;-78
2021/06/10 02:52:35;;;;;;;11.55;7.10;;;512.30;1792.00;;;;;;5077077;28;20016;-77
2021/06/10 02:55:02;;;;;;;13.95;8.23;;;512.40;1792.00;;;;;;5077184;28;20020;-77
2021/06/10 02:57:29;;;;;;;10.82;7.35;;;512.40;1766.40;;;;;;5077000;28;20489;-77
2021/06/10 02:59:55;;;;;;;9.27;6.80;;;512.60;1766.40;;;;;;5077188;28;20127;-77
2021/06/10 03:02:21;;;;;;;12.45;7.50;;;512.60;1766.40;;;;;;5095235;28;20016;-77
2021/06/10 03:04:47;;;;;;;11.68;7.88;;;512.70;1740.80;;;;;;5095420;28;20039;-77
2021/06/10 03:07:16;;;;;;;10.20;7.28;;;512.90;1766.40;;;;;;5065007;28;20074;-77
2021/06/10 03:09:43;;;;;;;10.90;7.50;;;512.50;1792.00;;;;;;5061089;28;20427;-77
2021/06/10 03:12:11;;;;;;;12.60;7.53;;;512.30;1792.00;;;;;;5076899;28;20103;-77
2021/06/10 03:14:40;;;;;;;15.80;8.13;;;512.40;1792.00;;;;;;5076918;28;20031;-77
2021/06/10 03:17:07;;;;;;;10.88;7.90;;;512.40;1792.00;;;;;;5076792;28;20023;-78
2021/06/10 03:19:32;;;;;;;14.32;7.25;;;512.40;1792.00;;;;;;5075303;28;20027;-77
2021/06/10 03:21:59;;;;;;;14.80;7.85;;;512.30;1817.60;;;;;;5064229;28;20036;-78
2021/06/10 03:24:25;;;;;;;12.38;7.63;;;512.20;1817.60;;;;;;5076715;28;20358;-78
2021/06/10 03:26:51;;;;;;;16.67;7.65;;;512.20;1817.60;;;;;;5062558;28;20024;-78
2021/06/10 03:29:20;;;;;;;10.60;7.43;;;512.30;1817.60;;;;;;5094603;28;20028;-78
2021/06/10 03:31:46;;;;;;;10.68;7.47;;;512.40;1817.60;;;;;;5080401;28;20051;-78
2021/06/10 03:34:12;;;;;;;11.40;7.20;;;512.60;1792.00;;;;;;5094582;28;20032;-77
2021/06/10 03:36:39;;;;;;;12.82;6.35;;;512.60;1817.60;;;;;;5094610;28;20074;-77
2021/06/10 03:39:05;;;;;;;12.43;6.68;;;512.00;1792.00;;;;;;5090297;28;20040;-77
2021/06/10 03:41:33;;;;;;;9.15;6.88;;;512.60;1792.00;;;;;;5076261;28;20157;-77
2021/06/10 03:43:59;;;;;;;10.05;6.65;;;512.80;1766.40;;;;;;5094542;28;20024;-78
2021/06/10 03:46:25;;;;;;;16.65;6.57;;;512.60;1817.60;;;;;;5094310;28;20034;-77
2021/06/10 03:48:51;;;;;;;7.80;6.72;;;512.50;1792.00;;;;;;5075260;28;20187;-77
2021/06/10 03:51:19;;;;;;;10.75;6.65;;;512.50;1817.60;;;;;;5076282;28;20032;-78
2021/06/10 03:53:46;;;;;;;13.20;7.00;;;512.70;1766.40;;;;;;5081520;28;20036;-78
2021/06/10 03:56:12;;;;;;;9.23;6.60;;;512.80;1766.40;;;;;;5079161;28;20028;-77
2021/06/10 03:58:38;;;;;;;12.27;6.47;;;512.70;1792.00;;;;;;5094283;28;20028;-90
2021/06/10 04:01:03;;;;;;;10.05;7.13;;;512.60;1817.60;;;;;;5075608;28;20111;-77
2021/06/10 04:03:29;;;;;;;9.88;6.90;;;512.80;1792.00;;;;;;5094301;28;20033;-77
2021/06/10 04:05:56;;;;;;;8.80;7.07;;;512.50;1817.60;;;;;;5075746;28;20031;-77
2021/06/10 04:08:21;;;;;;;15.30;8.38;;;512.70;1817.60;;;;;;5093742;28;20123;-78
2021/06/10 04:10:47;;;;;;;10.07;6.93;;;512.60;1843.20;;;;;;5076340;28;20104;-78
2021/06/10 04:13:13;;;;;;;10.30;6.80;;;512.60;1843.20;;;;;;5075529;28;20024;-78
2021/06/10 04:15:39;;;;;;;7.75;6.20;;;512.60;1843.20;;;;;;5094046;28;20028;-78
2021/06/10 04:18:04;;;;;;;13.30;7.25;;;512.60;1843.20;;;;;;5075462;28;20020;-77
2021/06/10 04:20:30;;;;;;;14.68;7.50;;;512.60;1843.20;;;;;;5093872;28;20023;-78
2021/06/10 04:22:56;;;;;;;11.10;6.30;;;512.80;1817.60;;;;;;5093320;28;20028;-78
2021/06/10 04:25:22;;;;;;;16.30;7.20;;;512.90;1817.60;;;;;;5075688;28;20054;-77
2021/06/10 04:27:48;;;;;;;13.32;6.40;;;512.90;1792.00;;;;;;5093591;28;20037;-78
2021/06/10 04:30:14;;;;;;;10.27;6.10;;;512.90;1817.60;;;;;;5075384;28;20097;-77
2021/06/10 04:32:44;;;;;;;11.82;6.95;;;512.90;1792.00;;;;;;5093365;28;20447;-77
2021/06/10 04:35:11;;;;;;;9.70;6.63;;;512.90;1792.00;;;;;;5066784;28;20055;-77
2021/06/10 04:37:37;;;;;;;8.52;6.35;;;537.60;1843.20;;;;;;5064648;28;20025;-78
2021/06/10 04:40:04;;;;;;;15.05;7.07;;;537.60;1843.20;;;;;;5075234;28;20114;-77
2021/06/10 04:42:30;;;;;;;8.15;6.30;;;537.80;1843.20;;;;;;5075700;28;20031;-79
2021/06/10 04:44:56;;;;;;;9.73;6.97;;;537.60;1843.20;;;;;;5093296;28;20032;-90
2021/06/10 04:47:21;;;;;;;11.80;7.07;;;537.80;1868.80;;;;;;5073200;28;20024;-78
2021/06/10 04:49:47;;;;;;;11.65;6.57;;;537.80;1868.80;;;;;;5056897;28;20102;-90
2021/06/10 04:52:14;;;;;;;12.23;6.53;;;537.90;1843.20;;;;;;5058815;28;20536;-78
2021/06/10 04:54:40;;;;;;;15.52;6.85;;;537.90;1868.80;;;;;;5074586;28;20076;-78
2021/06/10 04:57:06;;;;;;;10.73;6.38;;;538.00;1868.80;;;;;;5075256;28;20108;-78
2021/06/10 04:59:32;;;;;;;9.13;6.78;;;538.00;1868.80;;;;;;5075099;28;20109;-78
2021/06/10 05:01:58;;;;;;;11.57;7.68;;;538.00;1868.80;;;;;;5074803;28;20078;-77
2021/06/10 05:04:23;;;;;;;15.98;6.85;;;538.20;1843.20;;;;;;5074149;28;20044;-78
2021/06/10 05:06:53;;;;;;;10.65;7.13;;;538.20;1843.20;;;;;;5074590;28;20103;-78
2021/06/10 05:09:19;;;;;;;12.68;6.55;;;538.30;1843.20;;;;;;5073067;28;20066;-78
2021/06/10 05:11:45;;;;;;;14.38;7.32;;;538.30;1868.80;;;;;;5078014;28;20398;-79
2021/06/10 05:14:11;;;;;;;14.05;7.55;;;538.30;1843.20;;;;;;5055246;28;20035;-78
2021/06/10 05:16:37;;;;;;;13.18;6.90;;;538.30;1868.80;;;;;;5077308;28;20028;-80
2021/06/10 05:19:02;;;;;;;11.25;7.32;;;538.40;1843.20;;;;;;5092901;28;20020;-77
2021/06/10 05:21:28;;;;;;;12.00;7.63;;;538.30;1868.80;;;;;;5092703;28;20016;-78
2021/06/10 05:23:55;;;;;;;12.95;7.50;;;538.50;1868.80;;;;;;5092422;28;20024;-77
2021/06/10 05:26:21;;;;;;;13.90;6.63;;;538.40;1868.80;;;;;;5092710;28;20016;-76
2021/06/10 05:28:46;;;;;;;12.10;7.00;;;538.40;1868.80;;;;;;5074382;28;20043;-77
2021/06/10 05:31:12;;;;;;;9.35;6.43;;;563.20;1894.40;;;;;;5074137;28;20058;-80
2021/06/10 05:33:38;;;;;;;16.58;7.25;;;538.50;1894.40;;;;;;5074472;28;20093;-82
2021/06/10 05:36:05;;;;;;;17.33;7.35;;;563.20;1920.00;;;;;;5092440;28;20024;-84
2021/06/10 05:38:32;;;;;;;13.02;6.80;;;563.20;1894.40;;;;;;5092228;28;20022;-77
2021/06/10 05:40:57;;;;;;;12.05;7.28;;;563.30;1894.40;;;;;;5068728;28;20021;-77
2021/06/10 05:43:23;;;;;;;13.40;7.03;;;563.50;1868.80;;;;;;5083944;28;20034;-81
2021/06/10 05:45:52;;;;;;;15.35;6.82;;;563.70;1868.80;;;;;;5092447;28;20088;-77
2021/06/10 05:48:19;;;;;;;10.65;6.82;;;563.80;1843.20;;;;;;5092335;28;20496;-77
2021/06/10 05:50:45;;;;;;;9.88;7.10;;;563.80;1843.20;;;;;;5092507;28;20028;-81
2021/06/10 05:53:11;;;;;;;13.88;7.75;;;563.90;1817.60;;;;;;5074597;28;20020;-80
2021/06/10 05:55:38;;;;;;;7.57;6.75;;;564.10;1817.60;;;;;;5074287;28;20024;-78
2021/06/10 05:58:04;;;;;;;8.48;6.75;;;564.10;1817.60;;;;;;5075168;28;20051;-84
2021/06/10 06:00:30;;;;;;;16.40;7.55;;;589.00;1792.00;;;;;;5092639;28;20035;-82
2021/06/10 06:02:56;;;;;;;8.88;5.72;;;589.10;1792.00;;;;;;5073005;28;20028;-83
2021/06/10 06:05:21;;;;;;;9.15;6.82;;;589.10;1792.00;;;;;;5073360;28;20078;-89
2021/06/10 06:07:49;;;;;;;11.10;6.28;;;589.20;1766.40;;;;;;5072128;28;20041;-86
2021/06/10 06:10:15;;;;;;;6.93;5.38;;;589.30;1792.00;;;;;;5085523;28;20043;-81
2021/06/10 06:12:44;;;;;;;7.55;5.60;;;589.40;1792.00;;;;;;5072877;28;20393;-79
2021/06/10 06:15:10;;;;;;;9.68;6.50;;;589.60;1766.40;;;;;;5073896;28;20024;-79
2021/06/10 06:17:36;;;;;;;8.20;5.60;;;589.60;1792.00;;;;;;5091665;28;20028;-83
2021/06/10 06:20:02;;;;;;;9.02;6.00;;;614.40;1766.40;;;;;;5092380;28;20099;-82
2021/06/10 06:22:29;;;;;;;9.63;6.10;;;614.40;1740.80;;;;;;5087753;28;20028;-79
2021/06/10 06:24:54;;;;;;;10.45;6.32;;;614.60;1715.20;;;;;;5074219;28;20039;-80
2021/06/10 06:27:21;;;;;;;8.90;6.47;;;614.80;1715.20;;;;;;5092008;28;20445;-87
2021/06/10 06:29:46;;;;;;;12.95;6.32;;;614.80;1689.60;;;;;;5074168;28;20056;-78
2021/06/10 06:32:12;;;;;;;10.00;6.28;;;614.80;1715.20;;;;;;5073345;28;20080;-78
2021/06/10 06:34:38;;;;;;;11.55;6.05;;;614.90;1689.60;;;;;;5092551;28;20032;-83
2021/06/10 06:37:05;;;;;;;14.88;6.28;;;614.90;1689.60;;;;;;5074073;28;20024;-88
2021/06/10 06:39:30;;;;;;;14.57;6.75;;;614.90;1715.20;;;;;;5091989;28;20021;-88
2021/06/10 06:41:57;;;;;;;9.65;5.47;;;615.10;1689.60;;;;;;5078697;28;20029;-79
2021/06/10 06:44:23;;;;;;;10.27;5.88;;;615.10;1664.00;;;;;;5077664;28;20027;-85
2021/06/10 06:46:48;;;;;;;9.07;5.40;;;615.30;1664.00;;;;;;5092281;28;20024;-77
2021/06/10 06:49:14;;;;;;;7.75;5.45;;;615.30;1638.40;;;;;;5091558;28;20117;-78
2021/06/10 06:51:40;;;;;;;8.70;5.60;;;640.00;1638.40;;;;;;5092225;28;20153;-78
2021/06/10 06:54:06;;;;;;;12.75;5.53;;;640.10;1664.00;;;;;;5073378;28;20031;-84
2021/06/10 06:56:32;;;;;;;10.00;5.00;;;640.10;1612.80;;;;;;5072267;28;20032;-77
2021/06/10 06:58:59;;;;;;;9.15;5.60;;;640.10;1612.80;;;;;;5089464;28;20024;-85
2021/06/10 07:01:24;;;;;;;9.77;5.18;;;640.20;1561.60;;;;;;5073650;28;20028;-80
2021/06/10 07:03:51;;;;;;;8.95;5.50;;;640.40;1561.60;;;;;;5086945;28;20074;-78
2021/06/10 07:06:16;;;;;;;15.30;5.80;;;640.40;1510.40;;;;;;5088979;28;20508;-84
2021/06/10 07:08:42;;;;;;;15.05;6.00;;;640.60;1536.00;;;;;;5070059;28;20064;-83
2021/06/10 07:11:08;;;;;;;14.80;5.80;;;640.70;1561.60;;;;;;5091393;28;20012;-78
2021/06/10 07:13:34;;;;;;;9.93;5.43;;;640.90;1536.00;;;;;;5091669;28;20362;-77
2021/06/10 07:15:59;;;;;;;6.75;5.18;;;640.90;1536.00;;;;;;5091212;28;20024;-79
2021/06/10 07:18:26;;;;;;;10.88;4.95;;;640.90;1510.40;;;;;;5092118;28;20020;-78
2021/06/10 07:20:53;;;;;;;13.52;5.97;;;640.70;1484.80;;;;;;5071616;28;20136;-85
2021/06/10 07:23:18;;;;;;;8.60;4.20;;;640.70;1484.80;;;;;;5071218;28;20036;-79
2021/06/10 07:25:44;;;;;;;11.48;4.88;;;640.90;1510.40;;;;;;5076987;28;20389;-87
2021/06/10 07:28:10;;;;;;;9.65;5.18;;;640.60;1536.00;;;;;;5093098;28;20067;-79
2021/06/10 07:30:36;;;;;;;14.27;5.45;;;640.70;1510.40;;;;;;5075042;28;20104;-87
2021/06/10 07:33:03;;;;;;;11.80;5.18;;;640.70;1484.80;;;;;;5094720;28;20055;-88
2021/06/10 07:35:32;;;;;;;10.40;5.15;;;640.60;1510.40;;;;;;5071225;28;20061;-79
2021/06/10 07:37:59;;;;;;;17.38;5.57;;;640.60;1536.00;;;;;;5069954;28;20016;-92
2021/06/10 07:40:25;;;;;;;8.70;4.50;;;640.60;1459.20;;;;;;5093944;28;20114;-89
2021/06/10 07:42:51;;;;;;;24.77;5.55;;;640.70;1510.40;;;;;;5074740;28;20031;-84
2021/06/10 07:45:18;;;;;;;7.57;5.05;;;640.90;1484.80;;;;;;5090417;28;20068;-88
2021/06/10 07:47:44;;;;;;;8.63;4.45;;;665.70;1484.80;;;;;;5073962;28;20024;-79
2021/06/10 07:50:11;;;;;;;8.80;4.75;;;665.90;1433.60;;;;;;5076565;28;20039;-84
2021/06/10 07:52:37;;;;;;;10.80;5.25;;;666.10;1433.60;;;;;;5094935;28;20024;-79
2021/06/10 07:55:04;;;;;;;11.48;5.38;;;666.30;1433.60;;;;;;5076333;28;20097;-79
2021/06/10 07:57:30;;;;;;;9.27;5.20;;;691.20;1459.20;;;;;;5093889;28;20016;-88
2021/06/10 07:59:56;;;;;;;7.35;4.40;;;691.40;1433.60;;;;;;5075920;28;20028;-79
2021/06/10 08:02:23;;;;;;;8.98;5.03;;;691.50;1331.20;;;;;;5094087;28;20461;-79
2021/06/10 08:04:49;;;;;;;6.97;5.43;;;691.50;1356.80;;;;;;5092731;28;20912;-78
2021/06/10 08:07:16;;;;;;;11.82;5.03;;;691.60;1356.80;;;;;;5094185;28;20043;-79
2021/06/10 08:09:41;;;;;;;10.38;5.22;;;691.80;1382.40;;;;;;5076037;28;20072;-78
2021/06/10 08:12:08;;;;;;;12.20;5.15;;;691.90;1382.40;;;;;;5075762;28;20488;-77
2021/06/10 08:14:34;;;;;;;9.93;5.13;;;692.10;1356.80;;;;;;5093825;28;20046;-77
2021/06/10 08:17:00;;;;;;;18.60;5.95;;;716.80;1382.40;;;;;;5075552;28;20024;-80
2021/06/10 08:19:26;;;;;;;10.73;4.28;;;716.80;1331.20;;;;;;5075492;28;20031;-82
2021/06/10 08:21:52;;;;;;;11.73;4.25;;;716.90;1254.40;;;;;;5075411;28;20036;-81
2021/06/10 08:24:17;;;;;;;6.97;4.68;;;717.00;1254.40;;;;;;5094024;28;20095;-78
2021/06/10 08:26:43;;;;;;;16.80;5.13;;;716.90;1305.60;;;;;;5093734;28;20450;-78
2021/06/10 08:29:10;;;;;;;11.02;5.22;;;717.10;1305.60;;;;;;5074637;28;20040;-78
2021/06/10 08:31:37;;;;;;;5.72;4.18;;;717.10;1254.40;;;;;;5078375;28;20151;-83
2021/06/10 08:34:03;;;;;;;8.98;4.03;;;717.10;1305.60;;;;;;5075065;28;20016;-77
2021/06/10 08:36:29;;;;;;;14.88;4.60;;;717.10;1305.60;;;;;;5093689;28;20020;-82
2021/06/10 08:38:54;;;;;;;9.43;3.88;;;717.10;1305.60;;;;;;5094080;28;20027;-78
2021/06/10 08:41:21;;;;;;;10.57;4.40;;;717.20;1280.00;;;;;;5093280;28;20077;-78
2021/06/10 08:43:46;;;;;;;10.10;4.32;;;717.40;1254.40;;;;;;5093694;28;20107;-79
2021/06/10 08:46:13;;;;;;;8.80;4.00;;;717.40;1254.40;;;;;;5075236;28;20193;-79
2021/06/10 08:48:42;;;;;;;11.00;4.10;;;717.20;1177.60;;;;;;5093255;28;20032;-82
2021/06/10 08:51:10;;;;;;;9.48;3.67;;;717.20;1228.80;;;;;;5075260;28;20023;-81
2021/06/10 08:53:36;;;;;;;8.88;4.30;;;717.10;1177.60;;;;;;5093251;28;20016;-80
2021/06/10 08:56:03;;;;;;;12.52;4.18;;;717.20;1177.60;;;;;;5074861;28;20020;-80
2021/06/10 08:58:29;;;;;;;7.10;3.92;;;717.40;1177.60;;;;;;5074797;28;20024;-81
2021/06/10 09:00:56;;;;;;;7.35;4.28;;;717.40;1203.20;;;;;;5074843;28;20036;-80
2021/06/10 09:03:29;;;;;;;12.25;4.68;;;717.40;1254.40;;;;;;5074851;28;20035;-80
2021/06/10 09:06:10;;;;;;;5.68;3.85;;;717.20;1228.80;;;;;;5074229;28;20550;-78
2021/06/10 09:08:40;;;;;;;8.00;3.53;;;717.10;1126.40;;;;;;5092939;28;20117;-78
2021/06/10 09:11:22;;;;;;;7.55;4.07;;;717.10;1152.00;;;;;;5092440;28;20023;-77
2021/06/10 09:13:57;;;;;;;9.23;4.38;;;717.20;1152.00;;;;;;5092799;28;20220;-78
2021/06/10 09:16:34;;;;;;;6.72;3.60;;;717.40;1203.20;;;;;;5074478;28;20016;-79
2021/06/10 09:19:12;;;;;;;9.00;4.65;;;717.60;1177.60;;;;;;5074377;28;20024;-80
2021/06/10 09:21:56;;;;;;;5.72;3.50;;;717.50;1177.60;;;;;;5092546;28;20377;-79
2021/06/10 09:24:31;;;;;;;11.25;4.63;;;717.60;1177.60;;;;;;5069643;28;20067;-78
2021/06/10 09:27:06;;;;;;;8.32;4.28;;;717.70;1152.00;;;;;;5085982;28;20023;-78
2021/06/10 09:29:47;;;;;;;9.80;3.83;;;742.50;1203.20;;;;;;5068225;28;20037;-82
2021/06/10 09:32:16;;;;;;;11.00;4.40;;;742.60;1126.40;;;;;;5061815;28;20109;-79
2021/06/10 09:34:49;;;;;;;8.80;4.03;;;742.80;1152.00;;;;;;5091571;28;20085;-82
2021/06/10 09:37:40;;;;;;;7.85;3.67;;;742.60;1126.40;;;;;;5059096;28;20060;-82
2021/06/10 09:40:09;;;;;;;9.75;4.25;;;742.40;1100.80;;;;;;5085267;28;20077;-82
2021/06/10 09:42:37;;;;;;;9.65;4.00;;;717.70;1126.40;;;;;;5073541;28;20107;-83
2021/06/10 09:45:05;;;;;;;5.38;3.95;;;717.40;1177.60;;;;;;5072520;28;20482;-80
2021/06/10 09:47:35;;;;;;;10.70;4.53;;;717.40;1228.80;;;;;;5072880;28;20547;-79
2021/06/10 09:50:23;;;;;;;10.48;4.80;;;717.40;1228.80;;;;;;5091606;28;20067;-79
2021/06/10 09:52:50;;;;;;;6.80;4.70;;;717.40;1254.40;;;;;;5089967;28;20024;-80
2021/06/10 09:55:31;;;;;;;7.20;4.55;;;717.40;1254.40;;;;;;5091850;28;20428;-77
2021/06/10 09:58:17;;;;;;;8.00;4.53;;;717.40;1203.20;;;;;;5073173;28;20032;-79
2021/06/10 10:00:45;;;;;;;6.43;3.65;;;717.20;1177.60;;;;;;5077780;28;20101;-78
2021/06/10 10:03:24;;;;;;;8.05;4.38;;;717.20;1203.20;;;;;;5091766;28;20032;-79
2021/06/10 10:05:57;;;;;;;13.63;4.10;;;717.20;1152.00;;;;;;5073730;28;20020;-78
2021/06/10 10:08:24;;;;;;;12.55;4.50;;;717.10;1177.60;;;;;;5073808;28;20089;-79
2021/06/10 10:10:51;;;;;;;7.53;3.63;;;717.00;1100.80;;;;;;5073738;28;20020;-84
2021/06/10 10:13:19;;;;;;;7.20;3.63;;;717.20;1126.40;;;;;;5091701;28;20107;-81
2021/06/10 10:15:45;;;;;;;5.18;3.65;;;717.50;1100.80;;;;;;5073395;28;20016;-79
2021/06/10 10:18:12;;;;;;;4.78;3.45;;;717.70;1100.80;;;;;;5073872;28;20024;-79
2021/06/10 10:20:40;;;;;;;8.98;3.67;;;742.50;1075.20;;;;;;5091634;28;20031;-80
2021/06/10 10:23:06;;;;;;;6.55;3.80;;;742.60;1126.40;;;;;;5073380;28;20044;-79
2021/06/10 10:25:32;;;;;;;8.82;4.10;;;742.70;1126.40;;;;;;5073709;28;20020;-78
2021/06/10 10:28:02;;;;;;;6.10;3.80;;;742.80;1177.60;;;;;;5085675;28;20028;-77
2021/06/10 10:30:29;;;;;;;5.35;3.78;;;742.90;1126.40;;;;;;5086401;28;20034;-79
2021/06/10 10:32:55;;;;;;;7.45;4.68;;;742.80;1126.40;;;;;;5080576;28;20119;-79
2021/06/10 10:35:21;;;;;;;13.45;3.70;;;742.70;1152.00;;;;;;5071843;28;20028;-78
2021/06/10 10:37:48;;;;;;;10.68;3.83;;;742.70;1152.00;;;;;;5072457;28;20028;-79
2021/06/10 10:40:28;;;;;;;9.52;4.10;;;742.60;1126.40;;;;;;5086058;28;20381;-79
2021/06/10 10:43:08;;;;;;;15.55;4.50;;;742.90;1152.00;;;;;;5072701;28;20016;-81
2021/06/10 10:45:34;;;;;;;8.30;4.32;;;743.10;1126.40;;;;;;5070096;28;20029;-79
2021/06/10 10:48:02;;;;;;;12.57;4.70;;;743.30;1075.20;;;;;;5071477;28;20024;-78
2021/06/10 10:50:44;;;;;;;11.88;5.18;;;768.00;1100.80;;;;;;5084683;28;20021;-80
2021/06/10 10:53:22;;;;;;;10.85;4.05;;;768.20;1075.20;;;;;;5085136;28;20482;-80
2021/06/10 10:56:06;;;;;;;8.35;4.43;;;768.10;1126.40;;;;;;5070241;28;20375;-77
2021/06/10 10:58:32;;;;;;;12.27;4.20;;;768.10;1024.00;;;;;;5087419;28;20016;-77
2021/06/10 11:01:03;;;;;;;27.52;5.22;;;768.20;1075.20;;;;;;5087156;28;20107;-79
2021/06/10 11:03:28;;;;;;;18.00;4.35;;;768.30;1100.80;;;;;;5074281;28;20016;-80
2021/06/10 11:05:56;;;;;;;14.68;5.07;;;768.30;1049.60;;;;;;5088995;28;20500;-79
2021/06/10 11:08:24;;;;;;;6.05;4.28;;;768.40;998.40;;;;;;5090749;28;20497;-78
2021/06/10 11:10:55;;;;;;;7.03;3.92;;;768.30;998.40;;;;;;5089195;28;20078;-78
2021/06/10 11:13:28;;;;;;;8.27;3.80;;;768.40;1024.00;;;;;;5072812;28;20539;-79
2021/06/10 11:16:04;;;;;;;10.65;4.55;;;768.50;1049.60;;;;;;5086765;28;20111;-80
2021/06/10 11:18:41;;;;;;;7.28;3.72;;;768.40;1024.00;;;;;;5075582;28;20046;-87
2021/06/10 11:21:09;;;;;;;10.75;4.15;;;768.10;972.80;;;;;;5094478;28;20024;-79
2021/06/10 11:23:35;;;;;;;12.07;3.80;;;743.20;1024.00;;;;;;5076858;28;20077;-79
2021/06/10 11:26:04;;;;;;;6.97;4.20;;;743.30;1024.00;;;;;;5094922;28;20416;-89
2021/06/10 11:28:36;;;;;;;13.88;3.97;;;768.00;1024.00;;;;;;5084597;28;20428;-78
2021/06/10 11:31:21;;;;;;;6.00;4.25;;;743.30;972.80;;;;;;5075411;28;20048;-80
2021/06/10 11:33:49;;;;;;;5.75;3.03;;;743.20;1024.00;;;;;;5075169;28;20020;-78
2021/06/10 11:36:17;;;;;;;10.55;3.83;;;743.00;1024.00;;;;;;5068978;28;20028;-78
2021/06/10 11:38:45;;;;;;;7.65;3.80;;;743.10;1075.20;;;;;;5075982;28;20024;-78
2021/06/10 11:41:12;;;;;;;9.30;4.10;;;743.00;1024.00;;;;;;5076559;28;20020;-83
2021/06/10 11:43:42;;;;;;;4.95;3.63;;;742.90;1075.20;;;;;;5081014;28;20028;-80
2021/06/10 11:46:13;;;;;;;14.70;3.92;;;742.80;1049.60;;;;;;5062600;28;20111;-78
2021/06/10 11:48:47;;;;;;;6.15;3.42;;;742.80;1049.60;;;;;;5076023;28;20036;-78
2021/06/10 11:51:18;;;;;;;9.50;3.55;;;742.80;1024.00;;;;;;5080326;28;20056;-78
2021/06/10 11:53:44;;;;;;;9.75;3.90;;;742.70;1024.00;;;;;;5094500;28;20515;-78
2021/06/10 11:56:09;;;;;;;11.07;4.05;;;742.50;1024.00;;;;;;5075681;28;20055;-79
2021/06/10 11:58:35;;;;;;;8.52;3.70;;;742.40;1024.00;;;;;;5083455;28;20100;-78
2021/06/10 12:01:11;;;;;;;9.40;3.08;;;742.40;1024.00;;;;;;5090437;28;20349;-78
2021/06/10 12:03:38;;;;;;;6.68;3.83;;;717.70;998.40;;;;;;5075937;28;20366;-81
2021/06/10 12:06:10;;;;;;;26.65;6.35;;;717.70;1024.00;;;;;;5080274;28;20032;-77
2021/06/10 12:08:36;;;;;;;6.38;4.03;;;717.50;1024.00;;;;;;5093725;28;20466;-77
2021/06/10 12:11:07;;;;;;;11.45;5.57;;;717.50;998.40;;;;;;5093822;28;20361;-76
2021/06/10 12:13:38;;;;;;;12.63;4.20;;;717.40;1024.00;;;;;;5075664;28;20020;-77
2021/06/10 12:16:06;;;;;;;10.73;3.97;;;717.50;1049.60;;;;;;5070717;28;20470;-77
2021/06/10 12:18:32;;;;;;;11.98;4.53;;;717.60;998.40;;;;;;5078296;28;20086;-77